sensor_id;sensor_type;location;lat;lon;timestamp;temperature;humidity
71177;DHT22;58877;51.992;4.504;2024-01-10T00:02:00;-1.96;58.88
71177;DHT22;58877;51.992;4.504;2024-01-10T00:04:27;-1.92;58.94
71177;DHT22;58877;51.992;4.504;2024-01-10T00:06:52;-1.99;59.23
71177;DHT22;58877;51.992;4.504;2024-01-10T00:09:18;-2.03;59.34
71177;DHT22;58877;51.992;4.504;2024-01-10T00:11:44;-1.93;59.35
71177;DHT22;58877;51.992;4.504;2024-01-10T00:14:09;-1.93;59.30
71177;DHT22;58877;51.992;4.504;2024-01-10T00:16:35;-1.93;59.48
71177;DHT22;58877;51.992;4.504;2024-01-10T00:19:01;-1.90;59.64
71177;DHT22;58877;51.992;4.504;2024-01-10T00:21:27;-1.96;59.94
71177;DHT22;58877;51.992;4.504;2024-01-10T00:23:53;-1.96;60.06
71177;DHT22;58877;51.992;4.504;2024-01-10T00:26:19;-2.00;60.43
71177;DHT22;58877;51.992;4.504;2024-01-10T00:28:44;-2.00;60.48
71177;DHT22;58877;51.992;4.504;2024-01-10T00:31:14;-2.05;60.61
71177;DHT22;58877;51.992;4.504;2024-01-10T00:33:40;-2.05;60.67
71177;DHT22;58877;51.992;4.504;2024-01-10T00:36:07;-2.09;61.01
71177;DHT22;58877;51.992;4.504;2024-01-10T00:38:33;-2.09;61.27
71177;DHT22;58877;51.992;4.504;2024-01-10T00:40:58;-2.03;61.33
71177;DHT22;58877;51.992;4.504;2024-01-10T00:43:24;-2.05;61.49
71177;DHT22;58877;51.992;4.504;2024-01-10T00:45:52;-2.02;61.58
71177;DHT22;58877;51.992;4.504;2024-01-10T00:48:18;-2.00;61.64
71177;DHT22;58877;51.992;4.504;2024-01-10T00:50:43;-2.10;62.13
71177;DHT22;58877;51.992;4.504;2024-01-10T00:53:12;-2.10;62.18
71177;DHT22;58877;51.992;4.504;2024-01-10T00:55:38;-2.07;62.30
71177;DHT22;58877;51.992;4.504;2024-01-10T00:58:04;-2.11;62.38
71177;DHT22;58877;51.992;4.504;2024-01-10T01:00:29;-2.14;62.38
71177;DHT22;58877;51.992;4.504;2024-01-10T01:02:55;-2.13;62.42
71177;DHT22;58877;51.992;4.504;2024-01-10T01:05:20;-2.09;62.44
71177;DHT22;58877;51.992;4.504;2024-01-10T01:07:47;-2.05;62.55
71177;DHT22;58877;51.992;4.504;2024-01-10T01:10:12;-2.03;62.33
71177;DHT22;58877;51.992;4.504;2024-01-10T01:12:38;-2.06;62.50
71177;DHT22;58877;51.992;4.504;2024-01-10T01:15:05;-2.07;62.82
71177;DHT22;58877;51.992;4.504;2024-01-10T01:17:31;-2.06;62.68
71177;DHT22;58877;51.992;4.504;2024-01-10T01:19:56;-2.06;62.77
71177;DHT22;58877;51.992;4.504;2024-01-10T01:22:22;-2.09;62.87
71177;DHT22;58877;51.992;4.504;2024-01-10T01:24:48;-2.11;63.31
71177;DHT22;58877;51.992;4.504;2024-01-10T01:27:13;-2.11;63.19
71177;DHT22;58877;51.992;4.504;2024-01-10T01:29:39;-2.14;63.44
71177;DHT22;58877;51.992;4.504;2024-01-10T01:32:05;-2.22;63.80
71177;DHT22;58877;51.992;4.504;2024-01-10T01:34:33;-2.19;63.75
71177;DHT22;58877;51.992;4.504;2024-01-10T01:36:59;-2.16;63.53
71177;DHT22;58877;51.992;4.504;2024-01-10T01:39:26;-2.22;64.00
71177;DHT22;58877;51.992;4.504;2024-01-10T01:41:52;-2.20;64.00
71177;DHT22;58877;51.992;4.504;2024-01-10T01:44:17;-2.27;64.08
71177;DHT22;58877;51.992;4.504;2024-01-10T01:46:44;-2.27;64.08
71177;DHT22;58877;51.992;4.504;2024-01-10T01:49:11;-2.30;64.22
71177;DHT22;58877;51.992;4.504;2024-01-10T01:51:39;-2.30;64.30
71177;DHT22;58877;51.992;4.504;2024-01-10T01:54:07;-2.22;64.07
71177;DHT22;58877;51.992;4.504;2024-01-10T01:56:37;-2.22;64.10
71177;DHT22;58877;51.992;4.504;2024-01-10T01:59:07;-2.25;64.28
71177;DHT22;58877;51.992;4.504;2024-01-10T02:01:34;-2.30;64.57
71177;DHT22;58877;51.992;4.504;2024-01-10T02:04:03;-2.27;64.54
71177;DHT22;58877;51.992;4.504;2024-01-10T02:06:29;-2.37;64.80
71177;DHT22;58877;51.992;4.504;2024-01-10T02:08:57;-2.34;64.95
71177;DHT22;58877;51.992;4.504;2024-01-10T02:11:24;-2.39;65.11
71177;DHT22;58877;51.992;4.504;2024-01-10T02:13:50;-2.34;65.21
71177;DHT22;58877;51.992;4.504;2024-01-10T02:16:17;-2.29;64.93
71177;DHT22;58877;51.992;4.504;2024-01-10T02:18:43;-2.32;64.97
71177;DHT22;58877;51.992;4.504;2024-01-10T02:21:09;-2.32;65.08
71177;DHT22;58877;51.992;4.504;2024-01-10T02:23:34;-2.29;65.20
71177;DHT22;58877;51.992;4.504;2024-01-10T02:26:01;-2.34;65.25
71177;DHT22;58877;51.992;4.504;2024-01-10T02:28:26;-2.37;65.60
71177;DHT22;58877;51.992;4.504;2024-01-10T02:30:54;-2.33;65.55
71177;DHT22;58877;51.992;4.504;2024-01-10T02:33:20;-2.30;65.20
71177;DHT22;58877;51.992;4.504;2024-01-10T02:35:46;-2.27;65.18
71177;DHT22;58877;51.992;4.504;2024-01-10T02:38:11;-2.29;65.18
71177;DHT22;58877;51.992;4.504;2024-01-10T02:40:37;-2.29;65.28
71177;DHT22;58877;51.992;4.504;2024-01-10T02:43:03;-2.36;65.51
71177;DHT22;58877;51.992;4.504;2024-01-10T02:45:29;-2.36;65.54
71177;DHT22;58877;51.992;4.504;2024-01-10T02:47:54;-2.36;65.60
71177;DHT22;58877;51.992;4.504;2024-01-10T02:50:20;-2.37;65.52
71177;DHT22;58877;51.992;4.504;2024-01-10T02:52:45;-2.40;65.68
71177;DHT22;58877;51.992;4.504;2024-01-10T02:55:11;-2.39;65.82
71177;DHT22;58877;51.992;4.504;2024-01-10T02:57:37;-2.34;65.71
71177;DHT22;58877;51.992;4.504;2024-01-10T03:00:03;-2.33;65.60
71177;DHT22;58877;51.992;4.504;2024-01-10T03:02:31;-2.36;65.78
71177;DHT22;58877;51.992;4.504;2024-01-10T03:04:56;-2.36;65.85
71177;DHT22;58877;51.992;4.504;2024-01-10T03:07:22;-2.37;66.01
71177;DHT22;58877;51.992;4.504;2024-01-10T03:09:50;-2.37;65.84
71177;DHT22;58877;51.992;4.504;2024-01-10T03:12:16;-2.34;65.91
71177;DHT22;58877;51.992;4.504;2024-01-10T03:14:42;-2.37;65.89
71177;DHT22;58877;51.992;4.504;2024-01-10T03:17:07;-2.40;66.23
71177;DHT22;58877;51.992;4.504;2024-01-10T03:19:33;-2.40;66.12
71177;DHT22;58877;51.992;4.504;2024-01-10T03:21:59;-2.34;66.18
71177;DHT22;58877;51.992;4.504;2024-01-10T03:24:24;-2.39;66.02
71177;DHT22;58877;51.992;4.504;2024-01-10T03:26:52;-2.50;66.35
71177;DHT22;58877;51.992;4.504;2024-01-10T03:29:18;-2.46;66.62
71177;DHT22;58877;51.992;4.504;2024-01-10T03:31:43;-2.40;66.50
71177;DHT22;58877;51.992;4.504;2024-01-10T03:34:09;-2.43;66.60
71177;DHT22;58877;51.992;4.504;2024-01-10T03:36:35;-2.39;66.23
71177;DHT22;58877;51.992;4.504;2024-01-10T03:39:01;-2.43;66.27
71177;DHT22;58877;51.992;4.504;2024-01-10T03:41:26;-2.43;66.50
71177;DHT22;58877;51.992;4.504;2024-01-10T03:43:52;-2.39;66.68
71177;DHT22;58877;51.992;4.504;2024-01-10T03:46:18;-2.41;66.51
71177;DHT22;58877;51.992;4.504;2024-01-10T03:48:44;-2.43;66.64
71177;DHT22;58877;51.992;4.504;2024-01-10T03:51:18;-2.49;66.91
71177;DHT22;58877;51.992;4.504;2024-01-10T03:53:45;-2.49;66.82
71177;DHT22;58877;51.992;4.504;2024-01-10T03:56:11;-2.58;67.40
71177;DHT22;58877;51.992;4.504;2024-01-10T03:58:40;-2.56;67.45
71177;DHT22;58877;51.992;4.504;2024-01-10T04:01:09;-2.51;67.30
71177;DHT22;58877;51.992;4.504;2024-01-10T04:03:35;-2.47;67.28
71177;DHT22;58877;51.992;4.504;2024-01-10T04:06:02;-2.56;67.39
71177;DHT22;58877;51.992;4.504;2024-01-10T04:08:28;-2.53;67.49
71177;DHT22;58877;51.992;4.504;2024-01-10T04:10:53;-2.58;67.56
71177;DHT22;58877;51.992;4.504;2024-01-10T04:13:23;-2.60;67.50
71177;DHT22;58877;51.992;4.504;2024-01-10T04:15:49;-2.61;67.79
71177;DHT22;58877;51.992;4.504;2024-01-10T04:18:15;-2.70;67.93
71177;DHT22;58877;51.992;4.504;2024-01-10T04:20:41;-2.70;68.05
71177;DHT22;58877;51.992;4.504;2024-01-10T04:23:07;-2.68;68.08
71177;DHT22;58877;51.992;4.504;2024-01-10T04:25:33;-2.68;68.38
71177;DHT22;58877;51.992;4.504;2024-01-10T04:27:59;-2.85;69.07
71177;DHT22;58877;51.992;4.504;2024-01-10T04:30:24;-2.78;68.85
71177;DHT22;58877;51.992;4.504;2024-01-10T04:32:50;-2.81;68.85
71177;DHT22;58877;51.992;4.504;2024-01-10T04:35:16;-2.78;68.69
71177;DHT22;58877;51.992;4.504;2024-01-10T04:37:41;-2.81;68.95
71177;DHT22;58877;51.992;4.504;2024-01-10T04:40:07;-2.77;68.98
71177;DHT22;58877;51.992;4.504;2024-01-10T04:42:33;-2.84;68.90
71177;DHT22;58877;51.992;4.504;2024-01-10T04:44:59;-2.81;68.94
71177;DHT22;58877;51.992;4.504;2024-01-10T04:47:24;-2.81;69.04
71177;DHT22;58877;51.992;4.504;2024-01-10T04:49:50;-2.82;68.78
71177;DHT22;58877;51.992;4.504;2024-01-10T04:52:16;-2.80;68.94
71177;DHT22;58877;51.992;4.504;2024-01-10T04:54:41;-2.78;68.79
71177;DHT22;58877;51.992;4.504;2024-01-10T04:57:07;-2.87;68.89
71177;DHT22;58877;51.992;4.504;2024-01-10T04:59:33;-2.92;69.17
71177;DHT22;58877;51.992;4.504;2024-01-10T05:01:59;-2.96;69.25
71177;DHT22;58877;51.992;4.504;2024-01-10T05:04:25;-2.96;69.43
71177;DHT22;58877;51.992;4.504;2024-01-10T05:06:51;-2.98;69.19
71177;DHT22;58877;51.992;4.504;2024-01-10T05:09:17;-2.88;69.36
71177;DHT22;58877;51.992;4.504;2024-01-10T05:11:43;-2.89;69.01
71177;DHT22;58877;51.992;4.504;2024-01-10T05:14:08;-2.96;69.12
71177;DHT22;58877;51.992;4.504;2024-01-10T05:16:34;-2.94;69.22
71177;DHT22;58877;51.992;4.504;2024-01-10T05:19:03;-2.91;69.13
71177;DHT22;58877;51.992;4.504;2024-01-10T05:21:31;-2.92;69.31
71177;DHT22;58877;51.992;4.504;2024-01-10T05:23:57;-2.87;69.11
71177;DHT22;58877;51.992;4.504;2024-01-10T05:26:23;-2.91;69.03
71177;DHT22;58877;51.992;4.504;2024-01-10T05:28:48;-2.94;68.88
71177;DHT22;58877;51.992;4.504;2024-01-10T05:31:14;-2.89;69.04
71177;DHT22;58877;51.992;4.504;2024-01-10T05:33:39;-2.87;68.99
71177;DHT22;58877;51.992;4.504;2024-01-10T05:36:07;-2.87;68.86
71177;DHT22;58877;51.992;4.504;2024-01-10T05:38:33;-2.88;68.98
71177;DHT22;58877;51.992;4.504;2024-01-10T05:40:59;-2.91;69.04
71177;DHT22;58877;51.992;4.504;2024-01-10T05:43:24;-2.94;69.05
71177;DHT22;58877;51.992;4.504;2024-01-10T05:45:50;-2.96;69.11
71177;DHT22;58877;51.992;4.504;2024-01-10T05:48:16;-2.95;69.07
71177;DHT22;58877;51.992;4.504;2024-01-10T05:50:42;-2.88;68.96
71177;DHT22;58877;51.992;4.504;2024-01-10T05:53:08;-2.94;68.78
71177;DHT22;58877;51.992;4.504;2024-01-10T05:55:35;-2.92;68.79
71177;DHT22;58877;51.992;4.504;2024-01-10T05:58:02;-2.89;68.67
71177;DHT22;58877;51.992;4.504;2024-01-10T06:00:28;-2.89;68.51
71177;DHT22;58877;51.992;4.504;2024-01-10T06:02:53;-2.94;68.50
71177;DHT22;58877;51.992;4.504;2024-01-10T06:05:19;-2.91;68.55
71177;DHT22;58877;51.992;4.504;2024-01-10T06:07:45;-2.88;68.44
71177;DHT22;58877;51.992;4.504;2024-01-10T06:10:11;-2.94;68.65
71177;DHT22;58877;51.992;4.504;2024-01-10T06:12:37;-2.92;68.58
71177;DHT22;58877;51.992;4.504;2024-01-10T06:15:04;-2.92;68.39
71177;DHT22;58877;51.992;4.504;2024-01-10T06:17:30;-2.89;68.30
71177;DHT22;58877;51.992;4.504;2024-01-10T06:19:57;-3.02;68.56
71177;DHT22;58877;51.992;4.504;2024-01-10T06:22:25;-3.02;68.58
71177;DHT22;58877;51.992;4.504;2024-01-10T06:24:52;-2.98;68.62
71177;DHT22;58877;51.992;4.504;2024-01-10T06:27:17;-2.95;68.37
71177;DHT22;58877;51.992;4.504;2024-01-10T06:29:46;-2.98;68.45
71177;DHT22;58877;51.992;4.504;2024-01-10T06:32:11;-2.92;68.34
71177;DHT22;58877;51.992;4.504;2024-01-10T06:34:37;-2.88;68.25
71177;DHT22;58877;51.992;4.504;2024-01-10T06:37:03;-2.85;68.22
71177;DHT22;58877;51.992;4.504;2024-01-10T06:39:28;-2.89;67.99
71177;DHT22;58877;51.992;4.504;2024-01-10T06:41:54;-2.92;68.08
71177;DHT22;58877;51.992;4.504;2024-01-10T06:44:20;-2.91;68.16
71177;DHT22;58877;51.992;4.504;2024-01-10T06:46:46;-2.92;68.01
71177;DHT22;58877;51.992;4.504;2024-01-10T06:49:12;-2.85;67.94
71177;DHT22;58877;51.992;4.504;2024-01-10T06:51:38;-2.87;67.79
71177;DHT22;58877;51.992;4.504;2024-01-10T06:54:04;-2.87;67.74
71177;DHT22;58877;51.992;4.504;2024-01-10T06:56:32;-2.87;67.66
71177;DHT22;58877;51.992;4.504;2024-01-10T06:58:59;-2.91;67.70
71177;DHT22;58877;51.992;4.504;2024-01-10T07:01:26;-3.01;67.71
71177;DHT22;58877;51.992;4.504;2024-01-10T07:03:56;-3.05;67.78
71177;DHT22;58877;51.992;4.504;2024-01-10T07:06:22;-3.04;67.82
71177;DHT22;58877;51.992;4.504;2024-01-10T07:08:49;-3.04;67.93
71177;DHT22;58877;51.992;4.504;2024-01-10T07:11:16;-3.02;67.83
71177;DHT22;58877;51.992;4.504;2024-01-10T07:13:42;-3.09;67.94
71177;DHT22;58877;51.992;4.504;2024-01-10T07:16:09;-3.11;68.08
71177;DHT22;58877;51.992;4.504;2024-01-10T07:18:35;-3.18;68.19
71177;DHT22;58877;51.992;4.504;2024-01-10T07:21:00;-3.13;68.30
71177;DHT22;58877;51.992;4.504;2024-01-10T07:23:29;-3.16;68.38
71177;DHT22;58877;51.992;4.504;2024-01-10T07:25:56;-3.12;68.36
71177;DHT22;58877;51.992;4.504;2024-01-10T07:28:22;-3.09;68.22
71177;DHT22;58877;51.992;4.504;2024-01-10T07:30:48;-3.04;67.41
71177;DHT22;58877;51.992;4.504;2024-01-10T07:33:13;-2.95;67.54
71177;DHT22;58877;51.992;4.504;2024-01-10T07:35:39;-2.92;67.47
71177;DHT22;58877;51.992;4.504;2024-01-10T07:38:05;-2.92;67.14
71177;DHT22;58877;51.992;4.504;2024-01-10T07:40:34;-2.99;66.82
71177;DHT22;58877;51.992;4.504;2024-01-10T07:43:00;-3.04;67.07
71177;DHT22;58877;51.992;4.504;2024-01-10T07:45:26;-2.99;66.92
71177;DHT22;58877;51.992;4.504;2024-01-10T07:47:52;-2.99;66.77
71177;DHT22;58877;51.992;4.504;2024-01-10T07:50:18;-2.95;66.60
71177;DHT22;58877;51.992;4.504;2024-01-10T07:52:53;-2.94;66.50
71177;DHT22;58877;51.992;4.504;2024-01-10T07:55:19;-2.92;66.03
71177;DHT22;58877;51.992;4.504;2024-01-10T07:57:50;-2.89;66.13
71177;DHT22;58877;51.992;4.504;2024-01-10T08:00:17;-2.85;65.89
71177;DHT22;58877;51.992;4.504;2024-01-10T08:02:45;-2.88;65.66
71177;DHT22;58877;51.992;4.504;2024-01-10T08:05:11;-2.84;65.77
71177;DHT22;58877;51.992;4.504;2024-01-10T08:07:38;-2.84;65.69
71177;DHT22;58877;51.992;4.504;2024-01-10T08:10:08;-2.87;65.49
71177;DHT22;58877;51.992;4.504;2024-01-10T08:12:35;-2.87;65.63
71177;DHT22;58877;51.992;4.504;2024-01-10T08:15:01;-2.85;65.40
71177;DHT22;58877;51.992;4.504;2024-01-10T08:17:27;-2.74;65.22
71177;DHT22;58877;51.992;4.504;2024-01-10T08:19:53;-2.74;65.00
71177;DHT22;58877;51.992;4.504;2024-01-10T08:22:19;-2.65;64.66
71177;DHT22;58877;51.992;4.504;2024-01-10T08:24:46;-2.61;64.67
71177;DHT22;58877;51.992;4.504;2024-01-10T08:27:12;-2.58;64.28
71177;DHT22;58877;51.992;4.504;2024-01-10T08:29:37;-2.58;64.17
71177;DHT22;58877;51.992;4.504;2024-01-10T08:32:03;-2.58;64.05
71177;DHT22;58877;51.992;4.504;2024-01-10T08:34:30;-2.56;63.98
71177;DHT22;58877;51.992;4.504;2024-01-10T08:36:56;-2.47;63.53
71177;DHT22;58877;51.992;4.504;2024-01-10T08:39:21;-2.47;63.63
71177;DHT22;58877;51.992;4.504;2024-01-10T08:41:50;-2.36;63.42
71177;DHT22;58877;51.992;4.504;2024-01-10T08:44:15;-2.34;62.24
71177;DHT22;58877;51.992;4.504;2024-01-10T08:46:41;-2.33;62.43
71177;DHT22;58877;51.992;4.504;2024-01-10T08:49:07;-2.23;62.59
71177;DHT22;58877;51.992;4.504;2024-01-10T08:51:32;-2.25;62.24
71177;DHT22;58877;51.992;4.504;2024-01-10T08:53:59;-2.19;61.21
71177;DHT22;58877;51.992;4.504;2024-01-10T08:56:25;-2.23;61.16
71177;DHT22;58877;51.992;4.504;2024-01-10T08:58:52;-2.23;61.36
71177;DHT22;58877;51.992;4.504;2024-01-10T09:01:18;-2.25;60.59
71177;DHT22;58877;51.992;4.504;2024-01-10T09:03:44;-2.17;61.18
71177;DHT22;58877;51.992;4.504;2024-01-10T09:06:10;-2.26;60.83
71177;DHT22;58877;51.992;4.504;2024-01-10T09:08:36;-2.07;60.62
71177;DHT22;58877;51.992;4.504;2024-01-10T09:11:02;-1.95;59.92
71177;DHT22;58877;51.992;4.504;2024-01-10T09:13:28;-1.92;59.50
71177;DHT22;58877;51.992;4.504;2024-01-10T09:15:54;-1.89;59.03
71177;DHT22;58877;51.992;4.504;2024-01-10T09:18:20;-1.85;58.16
71177;DHT22;58877;51.992;4.504;2024-01-10T09:20:45;-1.81;58.71
71177;DHT22;58877;51.992;4.504;2024-01-10T09:23:11;-1.82;58.65
71177;DHT22;58877;51.992;4.504;2024-01-10T09:25:37;-1.69;58.43
71177;DHT22;58877;51.992;4.504;2024-01-10T09:28:06;-1.62;58.11
71177;DHT22;58877;51.992;4.504;2024-01-10T09:30:32;-1.65;58.02
71177;DHT22;58877;51.992;4.504;2024-01-10T09:32:57;-1.56;57.55
71177;DHT22;58877;51.992;4.504;2024-01-10T09:35:24;-1.42;57.64
71177;DHT22;58877;51.992;4.504;2024-01-10T09:37:50;-1.41;57.14
71177;DHT22;58877;51.992;4.504;2024-01-10T09:40:16;-1.32;56.55
71177;DHT22;58877;51.992;4.504;2024-01-10T09:42:44;-1.34;56.96
71177;DHT22;58877;51.992;4.504;2024-01-10T09:45:10;-1.22;56.70
71177;DHT22;58877;51.992;4.504;2024-01-10T09:47:39;-1.20;56.00
71177;DHT22;58877;51.992;4.504;2024-01-10T09:50:09;-1.17;55.86
71177;DHT22;58877;51.992;4.504;2024-01-10T09:52:43;-1.05;55.11
71177;DHT22;58877;51.992;4.504;2024-01-10T09:55:11;-1.01;55.14
71177;DHT22;58877;51.992;4.504;2024-01-10T09:57:42;-0.98;54.49
71177;DHT22;58877;51.992;4.504;2024-01-10T10:00:10;-0.96;54.65
71177;DHT22;58877;51.992;4.504;2024-01-10T10:02:38;-0.98;54.25
71177;DHT22;58877;51.992;4.504;2024-01-10T10:05:13;-0.90;54.74
71177;DHT22;58877;51.992;4.504;2024-01-10T10:07:50;-0.87;54.62
71177;DHT22;58877;51.992;4.504;2024-01-10T10:10:17;-0.76;54.56
71177;DHT22;58877;51.992;4.504;2024-01-10T10:12:50;-0.67;53.50
71177;DHT22;58877;51.992;4.504;2024-01-10T10:15:23;-0.65;52.87
71177;DHT22;58877;51.992;4.504;2024-01-10T10:17:52;-0.62;53.21
71177;DHT22;58877;51.992;4.504;2024-01-10T10:23:03;-0.40;52.88
71177;DHT22;58877;51.992;4.504;2024-01-10T10:25:34;-0.35;52.94
71177;DHT22;58877;51.992;4.504;2024-01-10T10:28:01;-0.23;52.25
71177;DHT22;58877;51.992;4.504;2024-01-10T10:30:32;-0.19;52.20
71177;DHT22;58877;51.992;4.504;2024-01-10T10:32:59;-0.21;52.19
71177;DHT22;58877;51.992;4.504;2024-01-10T10:35:24;-0.16;52.34
71177;DHT22;58877;51.992;4.504;2024-01-10T10:37:52;-0.11;51.88
71177;DHT22;58877;51.992;4.504;2024-01-10T10:40:18;-0.11;51.46
71177;DHT22;58877;51.992;4.504;2024-01-10T10:42:49;-0.03;51.26
71177;DHT22;58877;51.992;4.504;2024-01-10T10:45:18;-0.01;51.03
71177;DHT22;58877;51.992;4.504;2024-01-10T10:47:50;0.09;51.22
71177;DHT22;58877;51.992;4.504;2024-01-10T10:50:22;0.19;50.91
71177;DHT22;58877;51.992;4.504;2024-01-10T10:52:50;0.28;50.74
71177;DHT22;58877;51.992;4.504;2024-01-10T10:55:22;0.26;50.04
71177;DHT22;58877;51.992;4.504;2024-01-10T10:57:49;0.15;49.24
71177;DHT22;58877;51.992;4.504;2024-01-10T11:00:19;0.19;49.23
71177;DHT22;58877;51.992;4.504;2024-01-10T11:02:46;0.35;49.13
71177;DHT22;58877;51.992;4.504;2024-01-10T11:05:13;0.43;48.35
71177;DHT22;58877;51.992;4.504;2024-01-10T11:07:41;0.39;48.15
71177;DHT22;58877;51.992;4.504;2024-01-10T11:10:21;0.43;48.13
71177;DHT22;58877;51.992;4.504;2024-01-10T11:18:57;0.62;47.70
71177;DHT22;58877;51.992;4.504;2024-01-10T11:22:08;0.72;47.04
71177;DHT22;58877;51.992;4.504;2024-01-10T11:24:36;0.72;46.79
71177;DHT22;58877;51.992;4.504;2024-01-10T11:27:20;0.81;46.56
71177;DHT22;58877;51.992;4.504;2024-01-10T11:29:46;0.85;46.62
71177;DHT22;58877;51.992;4.504;2024-01-10T11:32:17;0.88;46.96
71177;DHT22;58877;51.992;4.504;2024-01-10T11:34:59;0.97;47.09
71177;DHT22;58877;51.992;4.504;2024-01-10T11:37:38;1.00;46.40
71177;DHT22;58877;51.992;4.504;2024-01-10T11:40:10;0.98;46.45
71177;DHT22;58877;51.992;4.504;2024-01-10T11:42:44;1.04;46.49
71177;DHT22;58877;51.992;4.504;2024-01-10T11:47:56;1.34;45.56
71177;DHT22;58877;51.992;4.504;2024-01-10T11:50:23;1.24;45.62
71177;DHT22;58877;51.992;4.504;2024-01-10T11:52:58;1.24;45.56
71177;DHT22;58877;51.992;4.504;2024-01-10T11:56:08;1.37;45.64
71177;DHT22;58877;51.992;4.504;2024-01-10T11:58:52;1.45;45.50
71177;DHT22;58877;51.992;4.504;2024-01-10T12:01:18;1.44;45.24
71177;DHT22;58877;51.992;4.504;2024-01-10T12:03:44;1.44;45.16
71177;DHT22;58877;51.992;4.504;2024-01-10T12:06:11;1.44;45.53
71177;DHT22;58877;51.992;4.504;2024-01-10T12:08:37;1.45;45.64
71177;DHT22;58877;51.992;4.504;2024-01-10T12:11:04;1.44;45.45
71177;DHT22;58877;51.992;4.504;2024-01-10T12:13:30;1.38;45.71
71177;DHT22;58877;51.992;4.504;2024-01-10T12:15:57;1.44;45.26
71177;DHT22;58877;51.992;4.504;2024-01-10T12:18:23;1.49;44.72
71177;DHT22;58877;51.992;4.504;2024-01-10T12:20:49;1.65;44.45
71177;DHT22;58877;51.992;4.504;2024-01-10T12:23:15;1.72;44.83
71177;DHT22;58877;51.992;4.504;2024-01-10T12:25:41;1.76;44.58
71177;DHT22;58877;51.992;4.504;2024-01-10T12:28:06;1.76;44.54
71177;DHT22;58877;51.992;4.504;2024-01-10T12:30:32;1.73;44.81
71177;DHT22;58877;51.992;4.504;2024-01-10T12:33:01;1.89;45.02
71177;DHT22;58877;51.992;4.504;2024-01-10T12:35:27;1.90;44.64
71177;DHT22;58877;51.992;4.504;2024-01-10T12:37:56;1.89;44.59
71177;DHT22;58877;51.992;4.504;2024-01-10T12:40:21;1.82;44.67
71177;DHT22;58877;51.992;4.504;2024-01-10T12:42:47;1.87;44.43
71177;DHT22;58877;51.992;4.504;2024-01-10T12:45:23;1.96;44.64
71177;DHT22;58877;51.992;4.504;2024-01-10T12:47:48;2.02;44.15
71177;DHT22;58877;51.992;4.504;2024-01-10T12:50:15;2.09;43.92
71177;DHT22;58877;51.992;4.504;2024-01-10T12:52:41;2.20;43.48
71177;DHT22;58877;51.992;4.504;2024-01-10T12:55:08;2.20;43.04
71177;DHT22;58877;51.992;4.504;2024-01-10T12:57:35;2.17;43.01
71177;DHT22;58877;51.992;4.504;2024-01-10T13:00:04;2.29;43.02
71177;DHT22;58877;51.992;4.504;2024-01-10T13:02:36;2.36;42.60
71177;DHT22;58877;51.992;4.504;2024-01-10T13:05:05;2.33;42.30
71177;DHT22;58877;51.992;4.504;2024-01-10T13:07:37;2.32;42.65
71177;DHT22;58877;51.992;4.504;2024-01-10T13:10:03;2.47;42.34
71177;DHT22;58877;51.992;4.504;2024-01-10T13:12:28;2.43;42.35
71177;DHT22;58877;51.992;4.504;2024-01-10T13:14:54;2.41;42.44
71177;DHT22;58877;51.992;4.504;2024-01-10T13:17:19;2.44;41.88
71177;DHT22;58877;51.992;4.504;2024-01-10T13:19:47;2.53;42.19
71177;DHT22;58877;51.992;4.504;2024-01-10T13:22:15;2.54;42.37
71177;DHT22;58877;51.992;4.504;2024-01-10T13:24:44;2.48;42.71
71177;DHT22;58877;51.992;4.504;2024-01-10T13:27:13;2.32;41.95
71177;DHT22;58877;51.992;4.504;2024-01-10T13:29:38;2.19;42.68
71177;DHT22;58877;51.992;4.504;2024-01-10T13:32:06;2.26;43.35
71177;DHT22;58877;51.992;4.504;2024-01-10T13:34:32;2.34;43.07
71177;DHT22;58877;51.992;4.504;2024-01-10T13:36:58;2.36;42.50
71177;DHT22;58877;51.992;4.504;2024-01-10T13:39:24;2.34;43.25
71177;DHT22;58877;51.992;4.504;2024-01-10T13:41:50;2.36;43.14
71177;DHT22;58877;51.992;4.504;2024-01-10T13:44:16;2.33;42.86
71177;DHT22;58877;51.992;4.504;2024-01-10T13:46:42;2.29;43.38
71177;DHT22;58877;51.992;4.504;2024-01-10T13:49:10;2.37;43.94
71177;DHT22;58877;51.992;4.504;2024-01-10T13:51:36;2.37;44.38
71177;DHT22;58877;51.992;4.504;2024-01-10T13:54:02;2.33;43.64
71177;DHT22;58877;51.992;4.504;2024-01-10T13:56:28;2.40;44.44
71177;DHT22;58877;51.992;4.504;2024-01-10T13:58:55;2.37;44.45
71177;DHT22;58877;51.992;4.504;2024-01-10T14:01:20;2.43;44.62
71177;DHT22;58877;51.992;4.504;2024-01-10T14:03:46;2.47;43.95
71177;DHT22;58877;51.992;4.504;2024-01-10T14:06:11;2.46;43.55
71177;DHT22;58877;51.992;4.504;2024-01-10T14:08:38;2.37;44.13
71177;DHT22;58877;51.992;4.504;2024-01-10T14:11:06;2.37;44.27
71177;DHT22;58877;51.992;4.504;2024-01-10T14:13:31;2.41;44.20
71177;DHT22;58877;51.992;4.504;2024-01-10T14:15:57;2.26;44.08
71177;DHT22;58877;51.992;4.504;2024-01-10T14:18:23;2.20;44.87
71177;DHT22;58877;51.992;4.504;2024-01-10T14:20:48;2.24;45.17
71177;DHT22;58877;51.992;4.504;2024-01-10T14:23:14;2.30;45.17
71177;DHT22;58877;51.992;4.504;2024-01-10T14:25:42;2.23;44.65
71177;DHT22;58877;51.992;4.504;2024-01-10T14:28:08;2.24;45.26
71177;DHT22;58877;51.992;4.504;2024-01-10T14:30:34;2.27;45.28
71177;DHT22;58877;51.992;4.504;2024-01-10T14:33:00;2.30;45.53
71177;DHT22;58877;51.992;4.504;2024-01-10T14:35:25;2.29;45.50
71177;DHT22;58877;51.992;4.504;2024-01-10T14:37:51;2.24;45.44
71177;DHT22;58877;51.992;4.504;2024-01-10T14:40:18;2.30;45.89
71177;DHT22;58877;51.992;4.504;2024-01-10T14:42:44;2.26;46.16
71177;DHT22;58877;51.992;4.504;2024-01-10T14:45:11;2.32;46.18
71177;DHT22;58877;51.992;4.504;2024-01-10T14:47:36;2.32;46.08
71177;DHT22;58877;51.992;4.504;2024-01-10T14:50:02;2.32;46.40
71177;DHT22;58877;51.992;4.504;2024-01-10T14:52:29;2.27;46.36
71177;DHT22;58877;51.992;4.504;2024-01-10T14:54:55;2.34;46.63
71177;DHT22;58877;51.992;4.504;2024-01-10T14:57:21;2.65;46.44
71177;DHT22;58877;51.992;4.504;2024-01-10T14:59:47;2.83;46.29
71177;DHT22;58877;51.992;4.504;2024-01-10T15:02:16;3.16;46.28
71177;DHT22;58877;51.992;4.504;2024-01-10T15:04:45;3.22;45.95
71177;DHT22;58877;51.992;4.504;2024-01-10T15:07:11;3.38;46.50
71177;DHT22;58877;51.992;4.504;2024-01-10T15:09:45;3.63;45.78
71177;DHT22;58877;51.992;4.504;2024-01-10T15:12:13;3.66;45.67
71177;DHT22;58877;51.992;4.504;2024-01-10T15:14:39;3.80;45.19
71177;DHT22;58877;51.992;4.504;2024-01-10T15:17:06;3.70;45.06
71177;DHT22;58877;51.992;4.504;2024-01-10T15:19:34;3.32;45.95
71177;DHT22;58877;51.992;4.504;2024-01-10T15:22:00;3.25;46.33
71177;DHT22;58877;51.992;4.504;2024-01-10T15:24:27;2.74;47.66
71177;DHT22;58877;51.992;4.504;2024-01-10T15:26:53;2.30;48.51
71177;DHT22;58877;51.992;4.504;2024-01-10T15:29:18;2.10;49.44
71177;DHT22;58877;51.992;4.504;2024-01-10T15:31:44;1.96;49.87
71177;DHT22;58877;51.992;4.504;2024-01-10T15:34:11;1.80;50.56
71177;DHT22;58877;51.992;4.504;2024-01-10T15:36:41;1.61;51.01
71177;DHT22;58877;51.992;4.504;2024-01-10T15:39:09;1.55;51.32
71177;DHT22;58877;51.992;4.504;2024-01-10T15:41:38;1.48;51.65
71177;DHT22;58877;51.992;4.504;2024-01-10T15:44:04;1.45;51.96
71177;DHT22;58877;51.992;4.504;2024-01-10T15:46:31;1.39;52.07